메인 페이지
METAR-TAF:

METAR-TAF

공항 :

포르투알레그리, 히우그란지두술, 브라질

위도: 30-00S, 경도: 051-11W, 고도: 3m

현재 날씨관측

예보는 42분 전, 12:00시(UTC)에 발표되었습니다.
동북동2kt
온도 12°C
습도 76%
기압 1021 hPa
시정 10km 이상
1500m 미만 상공 구름 및 적란운 없음

METAR: SBPA 221200Z 06002KT CAVOK 12/08 Q1021

시각: 09:42 (12:42 UTC)

예보

예보는 3 시간 12분 전, 09:30시(UTC)에 발표되었습니다.
예보 대상 시간: 22일 12시부터 23일 12시까지 (UTC)
남남동8kt
시정 10km 이상
1500m 미만 상공 구름 및 적란운 없음
전환 중
22일 13시부터 22일 15시까지 (UTC)
시정 10km 이상
고도 3000ft 상공 구름 보통
전환 중
22일 22시부터 22일 24시까지 (UTC)
5kt
시정 10km 이상
1500m 미만 상공 구름 및 적란운 없음
확률 30%
23일 08시부터 23일 10시까지 (UTC)
시정: 4000m
박무

TAF: SBPA 220930Z 2212/2312 16008KT CAVOK TX26/2218Z TN12/2308Z BECMG 2213/2215 9999 SCT030 BECMG 2222/2224 10005KT CAVOK PROB30 2308/2310 4000 BR N SC RMK PER

4,000개 이상의 공항 관측 자료 및 예보 (METAR 및 TAF 보고).

지도상에서 검색 가능한 기상관측소가 노란 점과 빨간 점으로 표시되어 있습니다.

기상관측소 명을 보려면 표시 위로 마우스를 이동하세요.

날씨 관측과 예보를 보려면 클릭하세요.

지도 변경 : 확대하려면 엑스 표시가 있는 녹색 버튼, 축소하려면 빼기 표시가 있는 녹색 버튼, 다음 페이지의 지도를 보려면 녹색 화살표를 클릭하세요.


METAR-TAF: